sensor_id;sensor_type;location;lat;lon;timestamp;P1;durP1;ratioP1;P2;durP2;ratioP2
40471;SDS011;26174;42.908;23.800;2024-02-04T00:01:39;70.55;;;31.40;;
40471;SDS011;26174;42.908;23.800;2024-02-04T00:04:05;176.18;;;70.75;;
40471;SDS011;26174;42.908;23.800;2024-02-04T00:06:30;184.40;;;73.60;;
40471;SDS011;26174;42.908;23.800;2024-02-04T00:08:56;158.07;;;63.92;;
40471;SDS011;26174;42.908;23.800;2024-02-04T00:11:22;143.05;;;54.13;;
40471;SDS011;26174;42.908;23.800;2024-02-04T00:13:47;75.70;;;33.53;;
40471;SDS011;26174;42.908;23.800;2024-02-04T00:16:13;74.25;;;30.65;;
40471;SDS011;26174;42.908;23.800;2024-02-04T00:18:39;72.60;;;29.98;;
40471;SDS011;26174;42.908;23.800;2024-02-04T00:21:04;63.08;;;28.17;;
40471;SDS011;26174;42.908;23.800;2024-02-04T00:23:30;66.32;;;27.98;;
40471;SDS011;26174;42.908;23.800;2024-02-04T00:25:55;83.53;;;35.97;;
40471;SDS011;26174;42.908;23.800;2024-02-04T00:28:21;67.65;;;31.15;;
40471;SDS011;26174;42.908;23.800;2024-02-04T00:30:47;76.38;;;33.03;;
40471;SDS011;26174;42.908;23.800;2024-02-04T00:33:15;84.90;;;32.28;;
40471;SDS011;26174;42.908;23.800;2024-02-04T00:35:41;62.88;;;25.30;;
40471;SDS011;26174;42.908;23.800;2024-02-04T00:38:07;53.80;;;22.10;;
40471;SDS011;26174;42.908;23.800;2024-02-04T00:40:33;42.78;;;17.75;;
40471;SDS011;26174;42.908;23.800;2024-02-04T00:42:59;31.70;;;14.75;;
40471;SDS011;26174;42.908;23.800;2024-02-04T00:45:25;28.58;;;14.77;;
40471;SDS011;26174;42.908;23.800;2024-02-04T00:47:51;39.85;;;17.88;;
40471;SDS011;26174;42.908;23.800;2024-02-04T00:50:16;33.72;;;16.85;;
40471;SDS011;26174;42.908;23.800;2024-02-04T00:52:42;34.53;;;17.58;;
40471;SDS011;26174;42.908;23.800;2024-02-04T00:55:08;38.33;;;16.58;;
40471;SDS011;26174;42.908;23.800;2024-02-04T00:57:33;42.45;;;20.75;;
40471;SDS011;26174;42.908;23.800;2024-02-04T00:59:59;40.40;;;18.35;;
40471;SDS011;26174;42.908;23.800;2024-02-04T01:02:25;38.28;;;18.05;;
40471;SDS011;26174;42.908;23.800;2024-02-04T01:04:50;45.10;;;21.50;;
40471;SDS011;26174;42.908;23.800;2024-02-04T01:07:16;44.95;;;21.13;;
40471;SDS011;26174;42.908;23.800;2024-02-04T01:09:42;58.78;;;25.73;;
40471;SDS011;26174;42.908;23.800;2024-02-04T01:12:08;47.60;;;21.88;;
40471;SDS011;26174;42.908;23.800;2024-02-04T01:14:33;61.25;;;24.67;;
40471;SDS011;26174;42.908;23.800;2024-02-04T01:16:59;59.60;;;25.77;;
40471;SDS011;26174;42.908;23.800;2024-02-04T01:19:25;46.78;;;21.10;;
40471;SDS011;26174;42.908;23.800;2024-02-04T01:21:50;62.25;;;24.40;;
40471;SDS011;26174;42.908;23.800;2024-02-04T01:24:16;52.88;;;24.27;;
40471;SDS011;26174;42.908;23.800;2024-02-04T01:26:42;50.83;;;23.05;;
40471;SDS011;26174;42.908;23.800;2024-02-04T01:29:07;50.30;;;22.92;;
40471;SDS011;26174;42.908;23.800;2024-02-04T01:31:33;53.08;;;23.27;;
40471;SDS011;26174;42.908;23.800;2024-02-04T01:33:59;49.08;;;23.55;;
40471;SDS011;26174;42.908;23.800;2024-02-04T01:36:24;63.90;;;26.88;;
40471;SDS011;26174;42.908;23.800;2024-02-04T01:38:50;59.72;;;25.75;;
40471;SDS011;26174;42.908;23.800;2024-02-04T01:41:15;69.30;;;28.73;;
40471;SDS011;26174;42.908;23.800;2024-02-04T01:43:41;67.10;;;28.45;;
40471;SDS011;26174;42.908;23.800;2024-02-04T01:46:07;65.35;;;27.83;;
40471;SDS011;26174;42.908;23.800;2024-02-04T01:48:33;77.82;;;32.72;;
40471;SDS011;26174;42.908;23.800;2024-02-04T01:50:59;64.15;;;27.35;;
40471;SDS011;26174;42.908;23.800;2024-02-04T01:53:25;55.72;;;26.77;;
40471;SDS011;26174;42.908;23.800;2024-02-04T01:55:51;63.63;;;27.98;;
40471;SDS011;26174;42.908;23.800;2024-02-04T01:58:17;51.97;;;24.63;;
40471;SDS011;26174;42.908;23.800;2024-02-04T02:00:43;61.83;;;27.70;;
40471;SDS011;26174;42.908;23.800;2024-02-04T02:03:09;60.85;;;27.30;;
40471;SDS011;26174;42.908;23.800;2024-02-04T02:05:36;73.28;;;29.73;;
40471;SDS011;26174;42.908;23.800;2024-02-04T02:08:02;77.85;;;33.35;;
40471;SDS011;26174;42.908;23.800;2024-02-04T02:10:28;66.63;;;32.60;;
40471;SDS011;26174;42.908;23.800;2024-02-04T02:13:29;81.22;;;35.08;;
40471;SDS011;26174;42.908;23.800;2024-02-04T02:18:42;76.63;;;33.42;;
40471;SDS011;26174;42.908;23.800;2024-02-04T02:21:26;78.40;;;34.22;;
40471;SDS011;26174;42.908;23.800;2024-02-04T02:24:16;76.53;;;32.55;;
40471;SDS011;26174;42.908;23.800;2024-02-04T02:26:49;72.53;;;29.33;;
40471;SDS011;26174;42.908;23.800;2024-02-04T02:29:15;55.83;;;26.50;;
40471;SDS011;26174;42.908;23.800;2024-02-04T02:31:42;56.25;;;26.52;;
40471;SDS011;26174;42.908;23.800;2024-02-04T02:34:08;51.90;;;25.75;;
40471;SDS011;26174;42.908;23.800;2024-02-04T02:36:37;56.35;;;28.23;;
40471;SDS011;26174;42.908;23.800;2024-02-04T02:39:32;62.15;;;27.35;;
40471;SDS011;26174;42.908;23.800;2024-02-04T02:42:01;77.47;;;33.88;;
40471;SDS011;26174;42.908;23.800;2024-02-04T02:44:29;70.40;;;31.90;;
40471;SDS011;26174;42.908;23.800;2024-02-04T02:46:55;63.95;;;30.33;;
40471;SDS011;26174;42.908;23.800;2024-02-04T02:49:22;68.13;;;30.42;;
40471;SDS011;26174;42.908;23.800;2024-02-04T02:51:48;70.90;;;29.02;;
40471;SDS011;26174;42.908;23.800;2024-02-04T02:54:13;56.10;;;25.63;;
40471;SDS011;26174;42.908;23.800;2024-02-04T02:56:39;59.17;;;25.13;;
40471;SDS011;26174;42.908;23.800;2024-02-04T02:59:05;52.60;;;24.65;;
40471;SDS011;26174;42.908;23.800;2024-02-04T03:01:30;56.03;;;25.27;;
40471;SDS011;26174;42.908;23.800;2024-02-04T03:03:56;62.42;;;26.33;;
40471;SDS011;26174;42.908;23.800;2024-02-04T03:06:22;57.03;;;25.48;;
40471;SDS011;26174;42.908;23.800;2024-02-04T03:08:48;57.88;;;26.17;;
40471;SDS011;26174;42.908;23.800;2024-02-04T03:11:13;55.90;;;26.92;;
40471;SDS011;26174;42.908;23.800;2024-02-04T03:13:39;55.33;;;25.60;;
40471;SDS011;26174;42.908;23.800;2024-02-04T03:16:09;59.08;;;26.02;;
40471;SDS011;26174;42.908;23.800;2024-02-04T03:18:39;55.75;;;25.63;;
40471;SDS011;26174;42.908;23.800;2024-02-04T03:21:11;57.28;;;26.17;;
40471;SDS011;26174;42.908;23.800;2024-02-04T03:23:37;51.00;;;25.25;;
40471;SDS011;26174;42.908;23.800;2024-02-04T03:26:03;56.83;;;24.92;;
40471;SDS011;26174;42.908;23.800;2024-02-04T03:28:29;56.50;;;26.15;;
40471;SDS011;26174;42.908;23.800;2024-02-04T03:30:54;55.40;;;25.40;;
40471;SDS011;26174;42.908;23.800;2024-02-04T03:33:20;45.50;;;22.77;;
40471;SDS011;26174;42.908;23.800;2024-02-04T03:35:45;51.25;;;23.15;;
40471;SDS011;26174;42.908;23.800;2024-02-04T03:38:11;54.65;;;24.20;;
40471;SDS011;26174;42.908;23.800;2024-02-04T03:40:37;58.78;;;25.25;;
40471;SDS011;26174;42.908;23.800;2024-02-04T03:43:02;55.65;;;25.75;;
40471;SDS011;26174;42.908;23.800;2024-02-04T03:45:28;59.05;;;24.70;;
40471;SDS011;26174;42.908;23.800;2024-02-04T03:47:54;54.83;;;23.77;;
40471;SDS011;26174;42.908;23.800;2024-02-04T03:50:19;56.95;;;26.05;;
40471;SDS011;26174;42.908;23.800;2024-02-04T03:52:45;48.10;;;23.00;;
40471;SDS011;26174;42.908;23.800;2024-02-04T03:55:10;47.38;;;23.63;;
40471;SDS011;26174;42.908;23.800;2024-02-04T03:57:36;56.00;;;27.63;;
40471;SDS011;26174;42.908;23.800;2024-02-04T04:00:02;55.90;;;26.60;;
40471;SDS011;26174;42.908;23.800;2024-02-04T04:02:28;56.45;;;26.80;;
40471;SDS011;26174;42.908;23.800;2024-02-04T04:04:53;55.40;;;26.00;;
40471;SDS011;26174;42.908;23.800;2024-02-04T04:07:19;50.28;;;25.05;;
40471;SDS011;26174;42.908;23.800;2024-02-04T04:09:45;57.08;;;26.13;;
40471;SDS011;26174;42.908;23.800;2024-02-04T04:12:10;52.22;;;24.90;;
40471;SDS011;26174;42.908;23.800;2024-02-04T04:14:36;46.78;;;24.50;;
40471;SDS011;26174;42.908;23.800;2024-02-04T04:17:01;49.45;;;23.65;;
40471;SDS011;26174;42.908;23.800;2024-02-04T04:19:27;51.15;;;23.35;;
40471;SDS011;26174;42.908;23.800;2024-02-04T04:21:53;53.30;;;23.27;;
40471;SDS011;26174;42.908;23.800;2024-02-04T04:24:19;46.10;;;22.95;;
40471;SDS011;26174;42.908;23.800;2024-02-04T04:26:47;45.50;;;22.83;;
40471;SDS011;26174;42.908;23.800;2024-02-04T04:29:12;59.40;;;23.73;;
40471;SDS011;26174;42.908;23.800;2024-02-04T04:31:38;43.22;;;21.73;;
40471;SDS011;26174;42.908;23.800;2024-02-04T04:34:04;49.45;;;22.77;;
40471;SDS011;26174;42.908;23.800;2024-02-04T04:36:29;46.10;;;21.80;;
40471;SDS011;26174;42.908;23.800;2024-02-04T04:38:55;48.35;;;22.88;;
40471;SDS011;26174;42.908;23.800;2024-02-04T04:41:20;51.13;;;24.00;;
40471;SDS011;26174;42.908;23.800;2024-02-04T04:43:46;48.45;;;23.25;;
40471;SDS011;26174;42.908;23.800;2024-02-04T04:46:12;53.80;;;24.27;;
40471;SDS011;26174;42.908;23.800;2024-02-04T04:48:37;50.15;;;23.50;;
40471;SDS011;26174;42.908;23.800;2024-02-04T04:51:03;53.10;;;24.98;;
40471;SDS011;26174;42.908;23.800;2024-02-04T04:53:28;48.97;;;24.13;;
40471;SDS011;26174;42.908;23.800;2024-02-04T04:55:54;56.72;;;27.23;;
40471;SDS011;26174;42.908;23.800;2024-02-04T04:58:20;61.65;;;28.98;;
40471;SDS011;26174;42.908;23.800;2024-02-04T05:00:45;57.38;;;27.33;;
40471;SDS011;26174;42.908;23.800;2024-02-04T05:03:11;58.53;;;27.75;;
40471;SDS011;26174;42.908;23.800;2024-02-04T05:05:37;58.92;;;30.63;;
40471;SDS011;26174;42.908;23.800;2024-02-04T05:08:02;59.45;;;29.85;;
40471;SDS011;26174;42.908;23.800;2024-02-04T05:10:29;51.38;;;27.60;;
40471;SDS011;26174;42.908;23.800;2024-02-04T05:12:54;56.45;;;28.25;;
40471;SDS011;26174;42.908;23.800;2024-02-04T05:15:20;52.95;;;27.77;;
40471;SDS011;26174;42.908;23.800;2024-02-04T05:17:46;55.33;;;26.95;;
40471;SDS011;26174;42.908;23.800;2024-02-04T05:20:12;63.80;;;28.65;;
40471;SDS011;26174;42.908;23.800;2024-02-04T05:22:37;57.20;;;27.70;;
40471;SDS011;26174;42.908;23.800;2024-02-04T05:25:03;61.22;;;31.25;;
40471;SDS011;26174;42.908;23.800;2024-02-04T05:27:30;72.20;;;35.72;;
40471;SDS011;26174;42.908;23.800;2024-02-04T05:29:56;85.75;;;38.78;;
40471;SDS011;26174;42.908;23.800;2024-02-04T05:32:21;84.45;;;38.30;;
40471;SDS011;26174;42.908;23.800;2024-02-04T05:34:47;79.70;;;38.10;;
40471;SDS011;26174;42.908;23.800;2024-02-04T05:37:13;70.20;;;33.67;;
40471;SDS011;26174;42.908;23.800;2024-02-04T05:39:38;71.60;;;32.67;;
40471;SDS011;26174;42.908;23.800;2024-02-04T05:42:04;68.00;;;32.17;;
40471;SDS011;26174;42.908;23.800;2024-02-04T05:44:29;69.15;;;33.65;;
40471;SDS011;26174;42.908;23.800;2024-02-04T05:46:55;64.70;;;31.15;;
40471;SDS011;26174;42.908;23.800;2024-02-04T05:49:21;61.35;;;30.80;;
40471;SDS011;26174;42.908;23.800;2024-02-04T05:51:46;56.83;;;27.83;;
40471;SDS011;26174;42.908;23.800;2024-02-04T05:54:12;57.10;;;27.77;;
40471;SDS011;26174;42.908;23.800;2024-02-04T05:56:38;56.38;;;27.48;;
40471;SDS011;26174;42.908;23.800;2024-02-04T05:59:04;64.03;;;29.13;;
40471;SDS011;26174;42.908;23.800;2024-02-04T06:01:30;62.30;;;28.98;;
40471;SDS011;26174;42.908;23.800;2024-02-04T06:03:56;61.85;;;30.77;;
40471;SDS011;26174;42.908;23.800;2024-02-04T06:06:21;69.47;;;34.35;;
40471;SDS011;26174;42.908;23.800;2024-02-04T06:08:47;80.25;;;36.20;;
40471;SDS011;26174;42.908;23.800;2024-02-04T06:11:12;76.13;;;34.15;;
40471;SDS011;26174;42.908;23.800;2024-02-04T06:13:42;64.80;;;30.55;;
40471;SDS011;26174;42.908;23.800;2024-02-04T06:16:09;62.72;;;30.00;;
40471;SDS011;26174;42.908;23.800;2024-02-04T06:18:38;63.40;;;29.95;;
40471;SDS011;26174;42.908;23.800;2024-02-04T06:21:04;57.30;;;28.63;;
40471;SDS011;26174;42.908;23.800;2024-02-04T06:23:30;64.85;;;29.48;;
40471;SDS011;26174;42.908;23.800;2024-02-04T06:25:56;78.93;;;34.85;;
40471;SDS011;26174;42.908;23.800;2024-02-04T06:28:22;74.50;;;34.00;;
40471;SDS011;26174;42.908;23.800;2024-02-04T06:30:48;69.63;;;33.83;;
40471;SDS011;26174;42.908;23.800;2024-02-04T06:33:14;73.20;;;36.35;;
40471;SDS011;26174;42.908;23.800;2024-02-04T06:35:40;75.22;;;38.15;;
40471;SDS011;26174;42.908;23.800;2024-02-04T06:38:06;75.60;;;37.97;;
40471;SDS011;26174;42.908;23.800;2024-02-04T06:40:31;88.97;;;42.95;;
40471;SDS011;26174;42.908;23.800;2024-02-04T06:42:57;83.15;;;40.10;;
40471;SDS011;26174;42.908;23.800;2024-02-04T06:45:23;84.95;;;39.38;;
40471;SDS011;26174;42.908;23.800;2024-02-04T06:47:48;103.35;;;49.63;;
40471;SDS011;26174;42.908;23.800;2024-02-04T06:50:14;122.28;;;55.63;;
40471;SDS011;26174;42.908;23.800;2024-02-04T06:52:41;88.38;;;42.53;;
40471;SDS011;26174;42.908;23.800;2024-02-04T06:55:07;93.00;;;44.10;;
40471;SDS011;26174;42.908;23.800;2024-02-04T06:57:33;69.78;;;35.35;;
40471;SDS011;26174;42.908;23.800;2024-02-04T06:59:59;241.75;;;133.52;;
40471;SDS011;26174;42.908;23.800;2024-02-04T07:02:25;116.82;;;59.13;;
40471;SDS011;26174;42.908;23.800;2024-02-04T07:04:50;79.72;;;39.55;;
40471;SDS011;26174;42.908;23.800;2024-02-04T07:07:16;68.68;;;33.42;;
40471;SDS011;26174;42.908;23.800;2024-02-04T07:09:41;68.20;;;36.15;;
40471;SDS011;26174;42.908;23.800;2024-02-04T07:12:26;70.32;;;35.63;;
40471;SDS011;26174;42.908;23.800;2024-02-04T07:14:51;64.47;;;34.03;;
40471;SDS011;26174;42.908;23.800;2024-02-04T07:17:17;68.22;;;34.03;;
40471;SDS011;26174;42.908;23.800;2024-02-04T07:19:42;67.43;;;34.88;;
40471;SDS011;26174;42.908;23.800;2024-02-04T07:22:08;64.15;;;30.48;;
40471;SDS011;26174;42.908;23.800;2024-02-04T07:24:34;70.80;;;36.17;;
40471;SDS011;26174;42.908;23.800;2024-02-04T07:27:00;59.78;;;31.42;;
40471;SDS011;26174;42.908;23.800;2024-02-04T07:29:26;60.53;;;31.23;;
40471;SDS011;26174;42.908;23.800;2024-02-04T07:31:51;62.95;;;32.30;;
40471;SDS011;26174;42.908;23.800;2024-02-04T07:34:17;68.30;;;33.50;;
40471;SDS011;26174;42.908;23.800;2024-02-04T07:36:43;67.60;;;34.28;;
40471;SDS011;26174;42.908;23.800;2024-02-04T07:39:10;77.22;;;40.05;;
40471;SDS011;26174;42.908;23.800;2024-02-04T07:41:35;79.30;;;41.63;;
40471;SDS011;26174;42.908;23.800;2024-02-04T07:44:01;107.70;;;50.28;;
40471;SDS011;26174;42.908;23.800;2024-02-04T07:46:27;111.05;;;54.95;;
40471;SDS011;26174;42.908;23.800;2024-02-04T07:48:52;131.38;;;65.45;;
40471;SDS011;26174;42.908;23.800;2024-02-04T07:51:18;137.50;;;66.30;;
40471;SDS011;26174;42.908;23.800;2024-02-04T07:53:43;125.68;;;62.90;;
40471;SDS011;26174;42.908;23.800;2024-02-04T07:56:09;122.40;;;63.05;;
40471;SDS011;26174;42.908;23.800;2024-02-04T07:58:36;124.78;;;60.88;;
40471;SDS011;26174;42.908;23.800;2024-02-04T08:01:01;146.50;;;71.25;;
40471;SDS011;26174;42.908;23.800;2024-02-04T08:03:27;211.32;;;110.03;;
40471;SDS011;26174;42.908;23.800;2024-02-04T08:05:53;119.20;;;56.08;;
40471;SDS011;26174;42.908;23.800;2024-02-04T08:08:18;136.88;;;69.32;;
40471;SDS011;26174;42.908;23.800;2024-02-04T08:10:44;79.20;;;38.47;;
40471;SDS011;26174;42.908;23.800;2024-02-04T08:13:09;101.35;;;51.03;;
40471;SDS011;26174;42.908;23.800;2024-02-04T08:15:35;173.18;;;91.10;;
40471;SDS011;26174;42.908;23.800;2024-02-04T08:18:01;102.78;;;50.67;;
40471;SDS011;26174;42.908;23.800;2024-02-04T08:20:26;95.00;;;52.13;;
40471;SDS011;26174;42.908;23.800;2024-02-04T08:22:52;91.50;;;47.53;;
40471;SDS011;26174;42.908;23.800;2024-02-04T08:25:18;98.07;;;50.08;;
40471;SDS011;26174;42.908;23.800;2024-02-04T08:27:43;118.28;;;62.40;;
40471;SDS011;26174;42.908;23.800;2024-02-04T08:30:09;88.03;;;48.40;;
40471;SDS011;26174;42.908;23.800;2024-02-04T08:32:37;102.43;;;49.25;;
40471;SDS011;26174;42.908;23.800;2024-02-04T08:35:03;102.15;;;51.28;;
40471;SDS011;26174;42.908;23.800;2024-02-04T08:37:29;95.43;;;50.05;;
40471;SDS011;26174;42.908;23.800;2024-02-04T08:39:55;100.20;;;51.80;;
40471;SDS011;26174;42.908;23.800;2024-02-04T08:42:20;113.30;;;51.35;;
40471;SDS011;26174;42.908;23.800;2024-02-04T08:44:46;107.80;;;51.45;;
40471;SDS011;26174;42.908;23.800;2024-02-04T08:47:12;101.90;;;52.83;;
40471;SDS011;26174;42.908;23.800;2024-02-04T08:49:39;92.97;;;46.05;;
40471;SDS011;26174;42.908;23.800;2024-02-04T08:52:05;117.25;;;49.17;;
40471;SDS011;26174;42.908;23.800;2024-02-04T08:54:30;105.20;;;50.47;;
40471;SDS011;26174;42.908;23.800;2024-02-04T08:56:56;117.50;;;59.13;;
40471;SDS011;26174;42.908;23.800;2024-02-04T08:59:22;119.65;;;59.58;;
40471;SDS011;26174;42.908;23.800;2024-02-04T09:01:49;112.75;;;53.35;;
40471;SDS011;26174;42.908;23.800;2024-02-04T09:04:15;104.35;;;48.83;;
40471;SDS011;26174;42.908;23.800;2024-02-04T09:06:41;72.82;;;34.92;;
40471;SDS011;26174;42.908;23.800;2024-02-04T09:09:06;79.55;;;40.67;;
40471;SDS011;26174;42.908;23.800;2024-02-04T09:11:33;81.43;;;40.42;;
40471;SDS011;26174;42.908;23.800;2024-02-04T09:13:59;123.03;;;61.90;;
40471;SDS011;26174;42.908;23.800;2024-02-04T09:16:25;69.85;;;35.72;;
40471;SDS011;26174;42.908;23.800;2024-02-04T09:18:50;66.78;;;37.85;;
40471;SDS011;26174;42.908;23.800;2024-02-04T09:21:16;55.17;;;28.77;;
40471;SDS011;26174;42.908;23.800;2024-02-04T09:23:41;45.67;;;26.70;;
40471;SDS011;26174;42.908;23.800;2024-02-04T09:26:07;40.58;;;21.75;;
40471;SDS011;26174;42.908;23.800;2024-02-04T09:28:33;35.47;;;18.70;;
40471;SDS011;26174;42.908;23.800;2024-02-04T09:30:58;35.92;;;19.75;;
40471;SDS011;26174;42.908;23.800;2024-02-04T09:33:24;36.92;;;20.85;;
40471;SDS011;26174;42.908;23.800;2024-02-04T09:35:50;42.33;;;22.27;;
40471;SDS011;26174;42.908;23.800;2024-02-04T09:38:15;40.85;;;23.05;;
40471;SDS011;26174;42.908;23.800;2024-02-04T09:40:41;45.30;;;26.33;;
40471;SDS011;26174;42.908;23.800;2024-02-04T09:43:07;46.83;;;29.17;;
40471;SDS011;26174;42.908;23.800;2024-02-04T09:45:33;62.05;;;35.78;;
40471;SDS011;26174;42.908;23.800;2024-02-04T09:47:58;66.63;;;38.50;;
40471;SDS011;26174;42.908;23.800;2024-02-04T09:50:25;68.10;;;39.63;;
40471;SDS011;26174;42.908;23.800;2024-02-04T09:52:51;87.47;;;47.38;;
40471;SDS011;26174;42.908;23.800;2024-02-04T09:55:23;88.20;;;52.30;;
40471;SDS011;26174;42.908;23.800;2024-02-04T09:57:49;89.47;;;48.10;;
40471;SDS011;26174;42.908;23.800;2024-02-04T10:00:15;96.38;;;51.28;;
40471;SDS011;26174;42.908;23.800;2024-02-04T10:02:44;89.13;;;48.60;;
40471;SDS011;26174;42.908;23.800;2024-02-04T10:05:10;92.47;;;52.53;;
40471;SDS011;26174;42.908;23.800;2024-02-04T10:07:36;83.85;;;46.85;;
40471;SDS011;26174;42.908;23.800;2024-02-04T10:10:02;84.30;;;48.00;;
40471;SDS011;26174;42.908;23.800;2024-02-04T10:12:27;62.40;;;34.28;;
40471;SDS011;26174;42.908;23.800;2024-02-04T10:14:53;55.55;;;32.25;;
40471;SDS011;26174;42.908;23.800;2024-02-04T10:17:19;57.65;;;35.22;;
40471;SDS011;26174;42.908;23.800;2024-02-04T10:19:48;22.58;;;14.90;;
40471;SDS011;26174;42.908;23.800;2024-02-04T10:22:14;11.50;;;7.70;;
40471;SDS011;26174;42.908;23.800;2024-02-04T10:24:41;8.63;;;6.10;;
40471;SDS011;26174;42.908;23.800;2024-02-04T10:27:09;13.05;;;7.30;;
40471;SDS011;26174;42.908;23.800;2024-02-04T10:29:35;5.38;;;3.47;;
40471;SDS011;26174;42.908;23.800;2024-02-04T10:32:01;3.60;;;2.90;;
40471;SDS011;26174;42.908;23.800;2024-02-04T10:34:27;5.82;;;3.15;;
40471;SDS011;26174;42.908;23.800;2024-02-04T10:36:55;6.22;;;3.72;;
40471;SDS011;26174;42.908;23.800;2024-02-04T10:39:21;4.80;;;3.72;;
40471;SDS011;26174;42.908;23.800;2024-02-04T10:41:51;10.90;;;6.25;;
40471;SDS011;26174;42.908;23.800;2024-02-04T10:44:18;15.15;;;6.25;;
40471;SDS011;26174;42.908;23.800;2024-02-04T10:46:46;12.45;;;6.22;;
40471;SDS011;26174;42.908;23.800;2024-02-04T10:49:17;9.00;;;5.28;;
40471;SDS011;26174;42.908;23.800;2024-02-04T10:51:43;9.32;;;5.43;;
40471;SDS011;26174;42.908;23.800;2024-02-04T10:54:11;28.98;;;8.93;;
40471;SDS011;26174;42.908;23.800;2024-02-04T10:56:46;9.95;;;5.85;;
40471;SDS011;26174;42.908;23.800;2024-02-04T10:59:21;11.65;;;6.28;;
40471;SDS011;26174;42.908;23.800;2024-02-04T11:01:48;27.55;;;10.40;;
40471;SDS011;26174;42.908;23.800;2024-02-04T11:04:14;15.77;;;7.60;;
40471;SDS011;26174;42.908;23.800;2024-02-04T11:06:41;4.00;;;3.00;;
40471;SDS011;26174;42.908;23.800;2024-02-04T11:09:08;24.52;;;15.88;;
40471;SDS011;26174;42.908;23.800;2024-02-04T11:11:35;23.08;;;14.10;;
40471;SDS011;26174;42.908;23.800;2024-02-04T11:14:04;14.55;;;8.13;;
40471;SDS011;26174;42.908;23.800;2024-02-04T11:21:50;20.73;;;9.30;;
40471;SDS011;26174;42.908;23.800;2024-02-04T11:26:55;31.10;;;14.63;;
40471;SDS011;26174;42.908;23.800;2024-02-04T11:29:21;7.30;;;4.85;;
40471;SDS011;26174;42.908;23.800;2024-02-04T11:31:47;20.45;;;12.13;;
40471;SDS011;26174;42.908;23.800;2024-02-04T11:34:13;45.80;;;22.27;;
40471;SDS011;26174;42.908;23.800;2024-02-04T11:36:39;32.85;;;15.90;;
40471;SDS011;26174;42.908;23.800;2024-02-04T11:39:11;10.05;;;6.13;;
40471;SDS011;26174;42.908;23.800;2024-02-04T11:41:47;3.08;;;2.33;;
40471;SDS011;26174;42.908;23.800;2024-02-04T11:44:22;1.88;;;1.30;;
40471;SDS011;26174;42.908;23.800;2024-02-04T11:46:51;3.03;;;1.45;;
40471;SDS011;26174;42.908;23.800;2024-02-04T11:49:18;10.65;;;7.20;;
40471;SDS011;26174;42.908;23.800;2024-02-04T11:51:47;8.05;;;4.95;;
40471;SDS011;26174;42.908;23.800;2024-02-04T11:54:17;3.75;;;2.55;;
40471;SDS011;26174;42.908;23.800;2024-02-04T11:56:50;2.88;;;1.77;;
40471;SDS011;26174;42.908;23.800;2024-02-04T11:59:18;6.20;;;2.92;;
40471;SDS011;26174;42.908;23.800;2024-02-04T12:01:46;10.40;;;6.35;;
40471;SDS011;26174;42.908;23.800;2024-02-04T12:04:12;4.68;;;3.55;;
40471;SDS011;26174;42.908;23.800;2024-02-04T12:06:41;3.67;;;2.90;;
40471;SDS011;26174;42.908;23.800;2024-02-04T12:09:07;3.95;;;2.35;;
40471;SDS011;26174;42.908;23.800;2024-02-04T12:11:36;6.15;;;3.50;;
40471;SDS011;26174;42.908;23.800;2024-02-04T12:14:06;3.58;;;2.10;;
40471;SDS011;26174;42.908;23.800;2024-02-04T12:16:32;2.17;;;1.40;;
40471;SDS011;26174;42.908;23.800;2024-02-04T12:19:00;4.88;;;2.83;;
40471;SDS011;26174;42.908;23.800;2024-02-04T12:21:28;7.60;;;3.95;;
40471;SDS011;26174;42.908;23.800;2024-02-04T12:23:54;7.40;;;4.00;;
40471;SDS011;26174;42.908;23.800;2024-02-04T12:26:20;8.60;;;4.90;;
40471;SDS011;26174;42.908;23.800;2024-02-04T12:28:47;9.13;;;4.43;;
40471;SDS011;26174;42.908;23.800;2024-02-04T12:31:17;12.32;;;4.28;;
40471;SDS011;26174;42.908;23.800;2024-02-04T12:33:51;10.93;;;4.60;;
40471;SDS011;26174;42.908;23.800;2024-02-04T12:36:23;29.52;;;5.75;;
40471;SDS011;26174;42.908;23.800;2024-02-04T12:38:52;14.85;;;4.80;;
40471;SDS011;26174;42.908;23.800;2024-02-04T12:41:24;14.98;;;4.70;;
40471;SDS011;26174;42.908;23.800;2024-02-04T12:43:53;12.25;;;4.32;;
40471;SDS011;26174;42.908;23.800;2024-02-04T12:46:19;17.17;;;7.13;;
40471;SDS011;26174;42.908;23.800;2024-02-04T12:48:53;19.25;;;9.23;;
40471;SDS011;26174;42.908;23.800;2024-02-04T12:51:26;16.25;;;8.55;;
40471;SDS011;26174;42.908;23.800;2024-02-04T12:54:08;18.55;;;9.38;;
40471;SDS011;26174;42.908;23.800;2024-02-04T12:56:48;18.17;;;7.88;;
40471;SDS011;26174;42.908;23.800;2024-02-04T13:04:48;22.35;;;10.07;;
40471;SDS011;26174;42.908;23.800;2024-02-04T13:07:14;16.08;;;9.70;;
40471;SDS011;26174;42.908;23.800;2024-02-04T13:09:42;13.90;;;7.85;;
40471;SDS011;26174;42.908;23.800;2024-02-04T13:12:10;9.32;;;5.55;;
40471;SDS011;26174;42.908;23.800;2024-02-04T13:14:36;12.82;;;7.63;;
40471;SDS011;26174;42.908;23.800;2024-02-04T13:17:03;11.45;;;7.47;;
40471;SDS011;26174;42.908;23.800;2024-02-04T13:19:36;10.57;;;6.38;;
40471;SDS011;26174;42.908;23.800;2024-02-04T13:22:02;7.15;;;5.15;;
40471;SDS011;26174;42.908;23.800;2024-02-04T13:24:31;8.95;;;5.43;;
40471;SDS011;26174;42.908;23.800;2024-02-04T13:26:57;12.38;;;6.72;;
40471;SDS011;26174;42.908;23.800;2024-02-04T13:29:26;13.15;;;7.25;;
40471;SDS011;26174;42.908;23.800;2024-02-04T13:31:51;30.30;;;9.82;;
40471;SDS011;26174;42.908;23.800;2024-02-04T13:34:17;34.45;;;11.40;;
40471;SDS011;26174;42.908;23.800;2024-02-04T13:36:43;23.30;;;12.77;;
40471;SDS011;26174;42.908;23.800;2024-02-04T13:39:09;21.80;;;13.30;;
40471;SDS011;26174;42.908;23.800;2024-02-04T13:41:37;27.58;;;12.43;;
40471;SDS011;26174;42.908;23.800;2024-02-04T13:44:06;45.70;;;19.30;;
40471;SDS011;26174;42.908;23.800;2024-02-04T13:46:32;32.97;;;16.50;;
40471;SDS011;26174;42.908;23.800;2024-02-04T13:48:58;31.92;;;14.10;;
40471;SDS011;26174;42.908;23.800;2024-02-04T13:51:23;24.35;;;11.82;;
40471;SDS011;26174;42.908;23.800;2024-02-04T13:53:49;34.10;;;13.88;;
40471;SDS011;26174;42.908;23.800;2024-02-04T13:56:14;24.42;;;13.73;;
40471;SDS011;26174;42.908;23.800;2024-02-04T13:58:44;22.20;;;12.68;;
40471;SDS011;26174;42.908;23.800;2024-02-04T14:01:09;36.00;;;20.77;;
40471;SDS011;26174;42.908;23.800;2024-02-04T14:03:35;28.10;;;16.52;;
40471;SDS011;26174;42.908;23.800;2024-02-04T14:06:01;31.25;;;18.05;;
40471;SDS011;26174;42.908;23.800;2024-02-04T14:08:28;41.85;;;16.15;;
40471;SDS011;26174;42.908;23.800;2024-02-04T14:10:55;13.38;;;7.72;;
40471;SDS011;26174;42.908;23.800;2024-02-04T14:13:20;14.40;;;7.93;;
40471;SDS011;26174;42.908;23.800;2024-02-04T14:15:46;23.85;;;13.40;;
40471;SDS011;26174;42.908;23.800;2024-02-04T14:18:12;3.58;;;2.83;;
40471;SDS011;26174;42.908;23.800;2024-02-04T14:20:37;6.05;;;3.83;;
40471;SDS011;26174;42.908;23.800;2024-02-04T14:23:03;4.47;;;3.17;;
40471;SDS011;26174;42.908;23.800;2024-02-04T14:25:28;5.22;;;3.08;;